sensor_id;sensor_type;location;lat;lon;timestamp;temperature;humidity
19037;DHT22;9651;49.138;8.900;2022-07-23T00:02:47;24.30;99.90
19037;DHT22;9651;49.138;8.900;2022-07-23T00:06:50;24.30;99.90
19037;DHT22;9651;49.138;8.900;2022-07-23T00:10:52;24.30;99.90
19037;DHT22;9651;49.138;8.900;2022-07-23T00:14:54;24.30;99.90
19037;DHT22;9651;49.138;8.900;2022-07-23T00:18:56;24.20;99.90
19037;DHT22;9651;49.138;8.900;2022-07-23T00:23:03;24.20;99.90
19037;DHT22;9651;49.138;8.900;2022-07-23T00:27:05;24.10;99.90
19037;DHT22;9651;49.138;8.900;2022-07-23T00:31:07;24.00;99.90
19037;DHT22;9651;49.138;8.900;2022-07-23T00:35:09;24.00;99.90
19037;DHT22;9651;49.138;8.900;2022-07-23T00:39:12;24.00;99.90
19037;DHT22;9651;49.138;8.900;2022-07-23T00:43:14;24.00;99.90
19037;DHT22;9651;49.138;8.900;2022-07-23T00:47:16;23.90;99.90
19037;DHT22;9651;49.138;8.900;2022-07-23T00:51:18;23.90;99.90
19037;DHT22;9651;49.138;8.900;2022-07-23T00:55:21;23.90;99.90
19037;DHT22;9651;49.138;8.900;2022-07-23T00:59:24;23.80;99.90
19037;DHT22;9651;49.138;8.900;2022-07-23T01:03:27;23.80;99.90
19037;DHT22;9651;49.138;8.900;2022-07-23T01:07:29;23.50;99.90
19037;DHT22;9651;49.138;8.900;2022-07-23T01:11:33;23.40;99.90
19037;DHT22;9651;49.138;8.900;2022-07-23T01:15:37;23.30;99.90
19037;DHT22;9651;49.138;8.900;2022-07-23T01:19:39;23.20;99.90
19037;DHT22;9651;49.138;8.900;2022-07-23T01:23:42;23.20;99.90
19037;DHT22;9651;49.138;8.900;2022-07-23T01:27:44;23.20;99.90
19037;DHT22;9651;49.138;8.900;2022-07-23T01:31:47;23.30;99.90
19037;DHT22;9651;49.138;8.900;2022-07-23T01:35:49;23.30;99.90
19037;DHT22;9651;49.138;8.900;2022-07-23T01:39:58;23.30;99.90
19037;DHT22;9651;49.138;8.900;2022-07-23T01:44:00;23.30;99.90
19037;DHT22;9651;49.138;8.900;2022-07-23T01:48:03;23.20;99.90
19037;DHT22;9651;49.138;8.900;2022-07-23T01:52:06;23.20;99.90
19037;DHT22;9651;49.138;8.900;2022-07-23T01:56:17;23.10;99.90
19037;DHT22;9651;49.138;8.900;2022-07-23T02:00:21;23.00;99.90
19037;DHT22;9651;49.138;8.900;2022-07-23T02:04:26;23.00;99.90
19037;DHT22;9651;49.138;8.900;2022-07-23T02:08:29;23.10;99.90
19037;DHT22;9651;49.138;8.900;2022-07-23T02:12:32;23.00;99.90
19037;DHT22;9651;49.138;8.900;2022-07-23T02:16:34;22.90;99.90
19037;DHT22;9651;49.138;8.900;2022-07-23T02:20:36;22.80;99.90
19037;DHT22;9651;49.138;8.900;2022-07-23T02:24:39;22.70;99.90
19037;DHT22;9651;49.138;8.900;2022-07-23T02:28:42;22.60;99.90
19037;DHT22;9651;49.138;8.900;2022-07-23T02:32:44;22.60;99.90
19037;DHT22;9651;49.138;8.900;2022-07-23T02:36:46;22.60;99.90
19037;DHT22;9651;49.138;8.900;2022-07-23T02:40:48;22.50;99.90
19037;DHT22;9651;49.138;8.900;2022-07-23T02:44:53;22.50;99.90
19037;DHT22;9651;49.138;8.900;2022-07-23T02:48:55;22.30;99.90
19037;DHT22;9651;49.138;8.900;2022-07-23T02:52:57;22.10;99.90
19037;DHT22;9651;49.138;8.900;2022-07-23T02:56:59;22.00;99.90
19037;DHT22;9651;49.138;8.900;2022-07-23T03:01:03;21.90;99.90
19037;DHT22;9651;49.138;8.900;2022-07-23T03:05:06;21.90;99.90
19037;DHT22;9651;49.138;8.900;2022-07-23T03:09:09;21.90;99.90
19037;DHT22;9651;49.138;8.900;2022-07-23T03:13:13;21.80;99.90
19037;DHT22;9651;49.138;8.900;2022-07-23T03:17:16;21.90;99.90
19037;DHT22;9651;49.138;8.900;2022-07-23T03:21:19;22.00;99.90
19037;DHT22;9651;49.138;8.900;2022-07-23T03:25:21;22.00;99.90
19037;DHT22;9651;49.138;8.900;2022-07-23T03:29:23;22.00;99.90
19037;DHT22;9651;49.138;8.900;2022-07-23T03:33:26;22.10;99.90
19037;DHT22;9651;49.138;8.900;2022-07-23T03:37:28;22.10;99.90
19037;DHT22;9651;49.138;8.900;2022-07-23T03:41:32;22.00;99.90
19037;DHT22;9651;49.138;8.900;2022-07-23T03:45:34;21.90;99.90
19037;DHT22;9651;49.138;8.900;2022-07-23T03:49:37;22.00;99.90
19037;DHT22;9651;49.138;8.900;2022-07-23T03:53:40;22.00;99.90
19037;DHT22;9651;49.138;8.900;2022-07-23T03:57:42;22.00;99.90
19037;DHT22;9651;49.138;8.900;2022-07-23T04:01:44;21.80;99.90
19037;DHT22;9651;49.138;8.900;2022-07-23T04:05:48;21.70;99.90
19037;DHT22;9651;49.138;8.900;2022-07-23T04:09:50;21.70;99.90
19037;DHT22;9651;49.138;8.900;2022-07-23T04:13:52;21.70;99.90
19037;DHT22;9651;49.138;8.900;2022-07-23T04:17:55;21.50;99.90
19037;DHT22;9651;49.138;8.900;2022-07-23T04:22:04;21.50;99.90
19037;DHT22;9651;49.138;8.900;2022-07-23T04:26:09;21.60;99.90
19037;DHT22;9651;49.138;8.900;2022-07-23T04:30:11;21.70;99.90
19037;DHT22;9651;49.138;8.900;2022-07-23T04:34:13;21.70;99.90
19037;DHT22;9651;49.138;8.900;2022-07-23T04:38:16;21.60;99.90
19037;DHT22;9651;49.138;8.900;2022-07-23T04:42:19;21.60;99.90
19037;DHT22;9651;49.138;8.900;2022-07-23T04:46:22;21.50;99.90
19037;DHT22;9651;49.138;8.900;2022-07-23T04:50:25;21.50;99.90
19037;DHT22;9651;49.138;8.900;2022-07-23T04:54:33;21.50;99.90
19037;DHT22;9651;49.138;8.900;2022-07-23T04:58:35;21.70;99.90
19037;DHT22;9651;49.138;8.900;2022-07-23T05:02:37;21.90;99.90
19037;DHT22;9651;49.138;8.900;2022-07-23T05:06:39;22.00;99.90
19037;DHT22;9651;49.138;8.900;2022-07-23T05:10:43;21.90;99.90
19037;DHT22;9651;49.138;8.900;2022-07-23T05:14:45;21.80;99.90
19037;DHT22;9651;49.138;8.900;2022-07-23T05:18:47;21.60;99.90
19037;DHT22;9651;49.138;8.900;2022-07-23T05:22:49;21.60;99.90
19037;DHT22;9651;49.138;8.900;2022-07-23T05:26:53;21.60;99.90
19037;DHT22;9651;49.138;8.900;2022-07-23T05:30:56;21.70;99.90
19037;DHT22;9651;49.138;8.900;2022-07-23T05:34:59;21.70;99.90
19037;DHT22;9651;49.138;8.900;2022-07-23T05:39:01;21.70;99.90
19037;DHT22;9651;49.138;8.900;2022-07-23T05:43:06;21.80;99.90
19037;DHT22;9651;49.138;8.900;2022-07-23T05:47:09;21.80;99.90
19037;DHT22;9651;49.138;8.900;2022-07-23T05:51:11;22.00;99.90
19037;DHT22;9651;49.138;8.900;2022-07-23T05:55:13;22.20;99.90
19037;DHT22;9651;49.138;8.900;2022-07-23T05:59:16;22.10;99.90
19037;DHT22;9651;49.138;8.900;2022-07-23T06:03:18;22.00;99.90
19037;DHT22;9651;49.138;8.900;2022-07-23T06:07:21;22.10;99.90
19037;DHT22;9651;49.138;8.900;2022-07-23T06:11:23;22.10;99.90
19037;DHT22;9651;49.138;8.900;2022-07-23T06:15:27;22.10;99.90
19037;DHT22;9651;49.138;8.900;2022-07-23T06:19:30;22.20;99.90
19037;DHT22;9651;49.138;8.900;2022-07-23T06:23:34;22.40;99.90
19037;DHT22;9651;49.138;8.900;2022-07-23T06:27:35;22.60;99.90
19037;DHT22;9651;49.138;8.900;2022-07-23T06:31:39;22.80;99.90
19037;DHT22;9651;49.138;8.900;2022-07-23T06:35:41;22.80;99.90
19037;DHT22;9651;49.138;8.900;2022-07-23T06:39:43;22.80;99.90
19037;DHT22;9651;49.138;8.900;2022-07-23T06:43:45;22.60;99.90
19037;DHT22;9651;49.138;8.900;2022-07-23T06:47:51;22.60;99.90
19037;DHT22;9651;49.138;8.900;2022-07-23T06:51:53;22.50;99.90
19037;DHT22;9651;49.138;8.900;2022-07-23T06:55:55;22.50;99.90
19037;DHT22;9651;49.138;8.900;2022-07-23T06:59:57;22.60;99.90
19037;DHT22;9651;49.138;8.900;2022-07-23T07:04:01;22.60;99.90
19037;DHT22;9651;49.138;8.900;2022-07-23T07:08:03;22.60;99.90
19037;DHT22;9651;49.138;8.900;2022-07-23T07:12:06;22.60;99.90
19037;DHT22;9651;49.138;8.900;2022-07-23T07:16:08;22.70;99.90
19037;DHT22;9651;49.138;8.900;2022-07-23T07:20:11;22.90;99.90
19037;DHT22;9651;49.138;8.900;2022-07-23T07:24:13;23.10;99.90
19037;DHT22;9651;49.138;8.900;2022-07-23T07:28:15;23.30;99.90
19037;DHT22;9651;49.138;8.900;2022-07-23T07:32:17;23.20;99.90
19037;DHT22;9651;49.138;8.900;2022-07-23T07:36:20;23.20;99.90
19037;DHT22;9651;49.138;8.900;2022-07-23T07:40:22;23.30;99.90
19037;DHT22;9651;49.138;8.900;2022-07-23T07:44:24;23.20;99.90
19037;DHT22;9651;49.138;8.900;2022-07-23T07:48:26;23.30;99.90
19037;DHT22;9651;49.138;8.900;2022-07-23T07:52:30;23.40;99.90
19037;DHT22;9651;49.138;8.900;2022-07-23T07:56:31;23.30;99.90
19037;DHT22;9651;49.138;8.900;2022-07-23T08:00:33;23.40;99.90
19037;DHT22;9651;49.138;8.900;2022-07-23T08:04:35;23.40;99.90
19037;DHT22;9651;49.138;8.900;2022-07-23T08:08:39;23.40;99.90
19037;DHT22;9651;49.138;8.900;2022-07-23T08:12:42;23.70;99.90
19037;DHT22;9651;49.138;8.900;2022-07-23T08:16:45;23.90;99.90
19037;DHT22;9651;49.138;8.900;2022-07-23T08:20:47;24.10;99.90
19037;DHT22;9651;49.138;8.900;2022-07-23T08:24:50;24.40;99.90
19037;DHT22;9651;49.138;8.900;2022-07-23T08:28:52;24.80;99.90
19037;DHT22;9651;49.138;8.900;2022-07-23T08:32:56;24.90;99.90
19037;DHT22;9651;49.138;8.900;2022-07-23T08:37:00;25.60;99.90
19037;DHT22;9651;49.138;8.900;2022-07-23T08:41:04;26.60;99.90
19037;DHT22;9651;49.138;8.900;2022-07-23T08:45:09;27.30;99.90
19037;DHT22;9651;49.138;8.900;2022-07-23T08:49:11;27.50;99.90
19037;DHT22;9651;49.138;8.900;2022-07-23T08:53:15;27.40;99.90
19037;DHT22;9651;49.138;8.900;2022-07-23T08:57:19;27.80;99.90
19037;DHT22;9651;49.138;8.900;2022-07-23T09:01:21;28.40;99.90
19037;DHT22;9651;49.138;8.900;2022-07-23T09:05:23;29.20;99.90
19037;DHT22;9651;49.138;8.900;2022-07-23T09:09:25;30.30;99.90
19037;DHT22;9651;49.138;8.900;2022-07-23T09:13:35;31.20;99.90
19037;DHT22;9651;49.138;8.900;2022-07-23T09:17:39;30.90;99.90
19037;DHT22;9651;49.138;8.900;2022-07-23T09:21:41;31.10;99.90
19037;DHT22;9651;49.138;8.900;2022-07-23T09:25:43;32.10;99.90
19037;DHT22;9651;49.138;8.900;2022-07-23T09:29:55;33.20;99.90
19037;DHT22;9651;49.138;8.900;2022-07-23T09:34:07;33.90;99.90
19037;DHT22;9651;49.138;8.900;2022-07-23T09:38:09;34.40;99.00
19037;DHT22;9651;49.138;8.900;2022-07-23T09:42:15;34.70;97.70
19037;DHT22;9651;49.138;8.900;2022-07-23T09:46:24;34.60;96.40
19037;DHT22;9651;49.138;8.900;2022-07-23T09:50:27;34.40;96.10
19037;DHT22;9651;49.138;8.900;2022-07-23T09:54:31;33.70;96.40
19037;DHT22;9651;49.138;8.900;2022-07-23T09:58:37;33.70;95.60
19037;DHT22;9651;49.138;8.900;2022-07-23T10:02:47;33.90;94.60
19037;DHT22;9651;49.138;8.900;2022-07-23T10:07:03;35.10;94.20
19037;DHT22;9651;49.138;8.900;2022-07-23T10:11:24;36.30;92.90
19037;DHT22;9651;49.138;8.900;2022-07-23T10:15:40;36.50;90.70
19037;DHT22;9651;49.138;8.900;2022-07-23T10:19:43;35.70;90.60
19037;DHT22;9651;49.138;8.900;2022-07-23T10:28:15;36.50;89.40
19037;DHT22;9651;49.138;8.900;2022-07-23T10:32:28;37.10;85.00
19037;DHT22;9651;49.138;8.900;2022-07-23T10:36:40;37.90;84.80
19037;DHT22;9651;49.138;8.900;2022-07-23T10:40:54;38.40;80.90
19037;DHT22;9651;49.138;8.900;2022-07-23T10:44:57;38.70;78.20
19037;DHT22;9651;49.138;8.900;2022-07-23T10:49:22;39.10;76.00
19037;DHT22;9651;49.138;8.900;2022-07-23T10:53:27;39.50;71.20
19037;DHT22;9651;49.138;8.900;2022-07-23T10:57:29;39.40;72.60
19037;DHT22;9651;49.138;8.900;2022-07-23T11:01:34;39.70;71.30
19037;DHT22;9651;49.138;8.900;2022-07-23T11:05:42;38.80;69.70
19037;DHT22;9651;49.138;8.900;2022-07-23T11:09:46;37.80;70.30
19037;DHT22;9651;49.138;8.900;2022-07-23T11:13:48;38.10;71.20
19037;DHT22;9651;49.138;8.900;2022-07-23T11:17:59;38.00;70.50
19037;DHT22;9651;49.138;8.900;2022-07-23T11:22:01;38.20;70.10
19037;DHT22;9651;49.138;8.900;2022-07-23T11:26:06;39.20;69.30
19037;DHT22;9651;49.138;8.900;2022-07-23T11:30:10;39.60;66.50
19037;DHT22;9651;49.138;8.900;2022-07-23T11:34:24;39.00;66.90
19037;DHT22;9651;49.138;8.900;2022-07-23T11:38:31;39.60;66.10
19037;DHT22;9651;49.138;8.900;2022-07-23T11:42:38;40.10;64.70
19037;DHT22;9651;49.138;8.900;2022-07-23T11:46:39;40.40;62.50
19037;DHT22;9651;49.138;8.900;2022-07-23T11:50:41;40.60;62.60
19037;DHT22;9651;49.138;8.900;2022-07-23T11:54:48;40.70;61.40
19037;DHT22;9651;49.138;8.900;2022-07-23T11:58:55;40.40;62.20
19037;DHT22;9651;49.138;8.900;2022-07-23T12:03:00;40.30;61.30
19037;DHT22;9651;49.138;8.900;2022-07-23T12:07:02;40.20;61.40
19037;DHT22;9651;49.138;8.900;2022-07-23T12:11:06;40.50;60.60
19037;DHT22;9651;49.138;8.900;2022-07-23T12:15:10;41.60;59.90
19037;DHT22;9651;49.138;8.900;2022-07-23T12:19:12;41.60;59.00
19037;DHT22;9651;49.138;8.900;2022-07-23T12:23:17;40.80;58.80
19037;DHT22;9651;49.138;8.900;2022-07-23T12:27:20;40.40;59.10
19037;DHT22;9651;49.138;8.900;2022-07-23T12:31:27;40.40;59.70
19037;DHT22;9651;49.138;8.900;2022-07-23T12:35:34;41.00;59.10
19037;DHT22;9651;49.138;8.900;2022-07-23T12:39:37;41.50;57.90
19037;DHT22;9651;49.138;8.900;2022-07-23T12:43:42;39.10;59.40
19037;DHT22;9651;49.138;8.900;2022-07-23T12:47:53;40.30;58.00
19037;DHT22;9651;49.138;8.900;2022-07-23T12:51:55;41.90;56.50
19037;DHT22;9651;49.138;8.900;2022-07-23T12:56:04;42.60;55.50
19037;DHT22;9651;49.138;8.900;2022-07-23T13:00:09;41.40;55.00
19037;DHT22;9651;49.138;8.900;2022-07-23T13:04:16;42.20;55.10
19037;DHT22;9651;49.138;8.900;2022-07-23T13:08:20;43.80;53.60
19037;DHT22;9651;49.138;8.900;2022-07-23T13:12:22;43.70;52.80
19037;DHT22;9651;49.138;8.900;2022-07-23T13:16:24;43.10;53.50
19037;DHT22;9651;49.138;8.900;2022-07-23T13:20:27;43.70;52.40
19037;DHT22;9651;49.138;8.900;2022-07-23T13:24:31;44.10;52.00
19037;DHT22;9651;49.138;8.900;2022-07-23T13:28:33;45.40;51.30
19037;DHT22;9651;49.138;8.900;2022-07-23T13:32:35;45.80;50.50
19037;DHT22;9651;49.138;8.900;2022-07-23T13:36:39;45.70;49.60
19037;DHT22;9651;49.138;8.900;2022-07-23T13:40:43;45.50;50.10
19037;DHT22;9651;49.138;8.900;2022-07-23T13:44:45;43.60;50.10
19037;DHT22;9651;49.138;8.900;2022-07-23T13:48:47;42.20;50.80
19037;DHT22;9651;49.138;8.900;2022-07-23T13:52:50;42.50;51.90
19037;DHT22;9651;49.138;8.900;2022-07-23T13:56:52;43.70;51.60
19037;DHT22;9651;49.138;8.900;2022-07-23T14:00:54;44.10;50.20
19037;DHT22;9651;49.138;8.900;2022-07-23T14:04:56;41.60;51.40
19037;DHT22;9651;49.138;8.900;2022-07-23T14:09:00;39.20;52.80
19037;DHT22;9651;49.138;8.900;2022-07-23T14:13:02;37.50;54.40
19037;DHT22;9651;49.138;8.900;2022-07-23T14:17:04;36.30;56.50
19037;DHT22;9651;49.138;8.900;2022-07-23T14:21:06;35.60;57.40
19037;DHT22;9651;49.138;8.900;2022-07-23T14:25:10;35.00;58.10
19037;DHT22;9651;49.138;8.900;2022-07-23T14:29:12;35.40;58.30
19037;DHT22;9651;49.138;8.900;2022-07-23T14:33:14;35.60;58.70
19037;DHT22;9651;49.138;8.900;2022-07-23T14:37:17;35.30;58.80
19037;DHT22;9651;49.138;8.900;2022-07-23T14:41:20;35.60;58.80
19037;DHT22;9651;49.138;8.900;2022-07-23T14:45:22;36.30;58.10
19037;DHT22;9651;49.138;8.900;2022-07-23T14:49:24;35.80;58.30
19037;DHT22;9651;49.138;8.900;2022-07-23T14:53:26;35.20;59.20
19037;DHT22;9651;49.138;8.900;2022-07-23T14:57:29;34.80;59.90
19037;DHT22;9651;49.138;8.900;2022-07-23T15:01:32;34.30;60.90
19037;DHT22;9651;49.138;8.900;2022-07-23T15:05:34;33.70;62.40
19037;DHT22;9651;49.138;8.900;2022-07-23T15:09:36;33.10;62.90
19037;DHT22;9651;49.138;8.900;2022-07-23T15:13:39;32.80;63.80
19037;DHT22;9651;49.138;8.900;2022-07-23T15:17:41;32.70;64.60
19037;DHT22;9651;49.138;8.900;2022-07-23T15:21:43;32.50;66.00
19037;DHT22;9651;49.138;8.900;2022-07-23T15:25:45;32.50;65.90
19037;DHT22;9651;49.138;8.900;2022-07-23T15:29:49;32.60;66.40
19037;DHT22;9651;49.138;8.900;2022-07-23T15:33:51;32.50;67.30
19037;DHT22;9651;49.138;8.900;2022-07-23T15:37:53;32.80;66.70
19037;DHT22;9651;49.138;8.900;2022-07-23T15:41:55;33.90;65.30
19037;DHT22;9651;49.138;8.900;2022-07-23T15:45:58;34.80;64.20
19037;DHT22;9651;49.138;8.900;2022-07-23T15:50:00;36.00;63.00
19037;DHT22;9651;49.138;8.900;2022-07-23T15:54:02;36.70;60.60
19037;DHT22;9651;49.138;8.900;2022-07-23T15:58:04;36.60;61.60
19037;DHT22;9651;49.138;8.900;2022-07-23T16:02:08;36.60;60.30
19037;DHT22;9651;49.138;8.900;2022-07-23T16:06:10;37.00;59.50
19037;DHT22;9651;49.138;8.900;2022-07-23T16:10:13;37.50;59.10
19037;DHT22;9651;49.138;8.900;2022-07-23T16:14:15;37.90;58.10
19037;DHT22;9651;49.138;8.900;2022-07-23T16:18:19;38.00;58.00
19037;DHT22;9651;49.138;8.900;2022-07-23T16:22:22;38.40;58.00
19037;DHT22;9651;49.138;8.900;2022-07-23T16:26:24;38.50;57.70
19037;DHT22;9651;49.138;8.900;2022-07-23T16:30:26;38.40;57.40
19037;DHT22;9651;49.138;8.900;2022-07-23T16:34:30;38.50;57.40
19037;DHT22;9651;49.138;8.900;2022-07-23T16:38:33;38.10;57.30
19037;DHT22;9651;49.138;8.900;2022-07-23T16:42:35;38.00;57.70
19037;DHT22;9651;49.138;8.900;2022-07-23T16:46:37;37.80;57.80
19037;DHT22;9651;49.138;8.900;2022-07-23T16:50:41;37.30;58.20
19037;DHT22;9651;49.138;8.900;2022-07-23T16:54:43;36.30;59.40
19037;DHT22;9651;49.138;8.900;2022-07-23T16:58:45;35.90;60.90
19037;DHT22;9651;49.138;8.900;2022-07-23T17:02:47;35.60;60.30
19037;DHT22;9651;49.138;8.900;2022-07-23T17:06:51;35.10;60.60
19037;DHT22;9651;49.138;8.900;2022-07-23T17:10:53;34.70;61.80
19037;DHT22;9651;49.138;8.900;2022-07-23T17:14:55;34.60;60.90
19037;DHT22;9651;49.138;8.900;2022-07-23T17:18:57;34.30;60.80
19037;DHT22;9651;49.138;8.900;2022-07-23T17:23:01;33.70;62.10
19037;DHT22;9651;49.138;8.900;2022-07-23T17:27:03;32.80;63.80
19037;DHT22;9651;49.138;8.900;2022-07-23T17:31:05;32.30;64.50
19037;DHT22;9651;49.138;8.900;2022-07-23T17:35:08;31.80;65.70
19037;DHT22;9651;49.138;8.900;2022-07-23T17:39:11;31.50;66.00
19037;DHT22;9651;49.138;8.900;2022-07-23T17:43:13;31.20;67.00
19037;DHT22;9651;49.138;8.900;2022-07-23T17:47:15;30.80;68.40
19037;DHT22;9651;49.138;8.900;2022-07-23T17:51:17;30.40;69.90
19037;DHT22;9651;49.138;8.900;2022-07-23T17:55:22;30.00;71.10
19037;DHT22;9651;49.138;8.900;2022-07-23T17:59:25;29.70;73.20
19037;DHT22;9651;49.138;8.900;2022-07-23T18:03:27;29.40;74.50
19037;DHT22;9651;49.138;8.900;2022-07-23T18:07:29;29.50;74.30
19037;DHT22;9651;49.138;8.900;2022-07-23T18:11:32;29.60;75.50
19037;DHT22;9651;49.138;8.900;2022-07-23T18:15:40;29.60;75.70
19037;DHT22;9651;49.138;8.900;2022-07-23T18:19:44;29.60;75.50
19037;DHT22;9651;49.138;8.900;2022-07-23T18:23:46;29.50;76.70
19037;DHT22;9651;49.138;8.900;2022-07-23T18:27:49;29.40;77.70
19037;DHT22;9651;49.138;8.900;2022-07-23T18:31:51;29.30;78.50
19037;DHT22;9651;49.138;8.900;2022-07-23T18:35:53;29.10;78.20
19037;DHT22;9651;49.138;8.900;2022-07-23T18:39:55;29.00;79.10
19037;DHT22;9651;49.138;8.900;2022-07-23T18:43:59;28.90;79.40
19037;DHT22;9651;49.138;8.900;2022-07-23T18:48:01;28.90;79.00
19037;DHT22;9651;49.138;8.900;2022-07-23T18:52:04;28.80;78.20
19037;DHT22;9651;49.138;8.900;2022-07-23T18:56:06;28.70;77.90
19037;DHT22;9651;49.138;8.900;2022-07-23T19:00:11;28.60;78.30
19037;DHT22;9651;49.138;8.900;2022-07-23T19:04:14;28.50;78.20
19037;DHT22;9651;49.138;8.900;2022-07-23T19:08:16;28.40;78.50
19037;DHT22;9651;49.138;8.900;2022-07-23T19:12:18;28.30;79.30
19037;DHT22;9651;49.138;8.900;2022-07-23T19:16:21;28.20;80.20
19037;DHT22;9651;49.138;8.900;2022-07-23T19:20:24;28.00;80.20
19037;DHT22;9651;49.138;8.900;2022-07-23T19:24:26;27.80;81.10
19037;DHT22;9651;49.138;8.900;2022-07-23T19:28:28;27.70;81.80
19037;DHT22;9651;49.138;8.900;2022-07-23T19:32:31;27.40;83.20
19037;DHT22;9651;49.138;8.900;2022-07-23T19:36:33;26.90;84.60
19037;DHT22;9651;49.138;8.900;2022-07-23T19:40:35;26.60;85.40
19037;DHT22;9651;49.138;8.900;2022-07-23T19:44:37;26.60;86.60
19037;DHT22;9651;49.138;8.900;2022-07-23T19:48:40;26.50;87.90
19037;DHT22;9651;49.138;8.900;2022-07-23T19:52:42;26.30;89.90
19037;DHT22;9651;49.138;8.900;2022-07-23T19:56:44;26.20;90.60
19037;DHT22;9651;49.138;8.900;2022-07-23T20:00:46;26.00;91.00
19037;DHT22;9651;49.138;8.900;2022-07-23T20:04:50;25.90;92.00
19037;DHT22;9651;49.138;8.900;2022-07-23T20:08:52;25.80;92.70
19037;DHT22;9651;49.138;8.900;2022-07-23T20:12:54;25.80;93.30
19037;DHT22;9651;49.138;8.900;2022-07-23T20:16:56;25.70;94.40
19037;DHT22;9651;49.138;8.900;2022-07-23T20:20:59;25.70;95.60
19037;DHT22;9651;49.138;8.900;2022-07-23T20:25:01;25.40;97.20
19037;DHT22;9651;49.138;8.900;2022-07-23T20:29:03;25.30;98.80
19037;DHT22;9651;49.138;8.900;2022-07-23T20:33:05;25.30;99.90
19037;DHT22;9651;49.138;8.900;2022-07-23T20:37:08;25.10;99.90
19037;DHT22;9651;49.138;8.900;2022-07-23T20:41:10;25.10;99.90
19037;DHT22;9651;49.138;8.900;2022-07-23T20:45:12;24.90;99.90
19037;DHT22;9651;49.138;8.900;2022-07-23T20:49:14;24.80;99.90
19037;DHT22;9651;49.138;8.900;2022-07-23T20:53:19;24.80;99.90
19037;DHT22;9651;49.138;8.900;2022-07-23T20:57:21;24.60;99.90
19037;DHT22;9651;49.138;8.900;2022-07-23T21:01:23;24.40;99.90
19037;DHT22;9651;49.138;8.900;2022-07-23T21:05:25;24.30;99.90
19037;DHT22;9651;49.138;8.900;2022-07-23T21:09:28;24.20;99.90
19037;DHT22;9651;49.138;8.900;2022-07-23T21:13:30;24.10;99.90
19037;DHT22;9651;49.138;8.900;2022-07-23T21:17:33;24.00;99.90
19037;DHT22;9651;49.138;8.900;2022-07-23T21:21:35;24.00;99.90
19037;DHT22;9651;49.138;8.900;2022-07-23T21:25:38;23.90;99.90
19037;DHT22;9651;49.138;8.900;2022-07-23T21:29:40;23.80;99.90
19037;DHT22;9651;49.138;8.900;2022-07-23T21:33:42;23.80;99.90
19037;DHT22;9651;49.138;8.900;2022-07-23T21:37:44;23.60;99.90
19037;DHT22;9651;49.138;8.900;2022-07-23T21:41:47;23.50;99.90
19037;DHT22;9651;49.138;8.900;2022-07-23T21:45:49;23.40;99.90
19037;DHT22;9651;49.138;8.900;2022-07-23T21:49:51;23.40;99.90
19037;DHT22;9651;49.138;8.900;2022-07-23T21:53:53;23.40;99.90
19037;DHT22;9651;49.138;8.900;2022-07-23T21:57:57;23.30;99.90
19037;DHT22;9651;49.138;8.900;2022-07-23T22:01:59;23.40;99.90
19037;DHT22;9651;49.138;8.900;2022-07-23T22:06:01;23.40;99.90
19037;DHT22;9651;49.138;8.900;2022-07-23T22:10:04;23.20;99.90
19037;DHT22;9651;49.138;8.900;2022-07-23T22:14:08;23.00;99.90
19037;DHT22;9651;49.138;8.900;2022-07-23T22:18:10;23.10;99.90
19037;DHT22;9651;49.138;8.900;2022-07-23T22:22:11;22.90;99.90
19037;DHT22;9651;49.138;8.900;2022-07-23T22:26:13;22.80;99.90
19037;DHT22;9651;49.138;8.900;2022-07-23T22:30:18;22.70;99.90
19037;DHT22;9651;49.138;8.900;2022-07-23T22:34:20;22.60;99.90
19037;DHT22;9651;49.138;8.900;2022-07-23T22:38:22;22.50;99.90
19037;DHT22;9651;49.138;8.900;2022-07-23T22:42:24;22.50;99.90
19037;DHT22;9651;49.138;8.900;2022-07-23T22:46:28;22.40;99.90
19037;DHT22;9651;49.138;8.900;2022-07-23T22:50:30;22.30;99.90
19037;DHT22;9651;49.138;8.900;2022-07-23T22:54:32;22.40;99.90
19037;DHT22;9651;49.138;8.900;2022-07-23T22:58:34;22.50;99.90
19037;DHT22;9651;49.138;8.900;2022-07-23T23:02:37;22.60;99.90
19037;DHT22;9651;49.138;8.900;2022-07-23T23:06:39;22.70;99.90
19037;DHT22;9651;49.138;8.900;2022-07-23T23:10:41;22.70;99.90
19037;DHT22;9651;49.138;8.900;2022-07-23T23:14:43;22.70;99.90
19037;DHT22;9651;49.138;8.900;2022-07-23T23:18:47;22.70;99.90
19037;DHT22;9651;49.138;8.900;2022-07-23T23:22:49;22.50;99.90
19037;DHT22;9651;49.138;8.900;2022-07-23T23:26:51;22.30;99.90
19037;DHT22;9651;49.138;8.900;2022-07-23T23:30:53;22.10;99.90
19037;DHT22;9651;49.138;8.900;2022-07-23T23:34:56;21.90;99.90
19037;DHT22;9651;49.138;8.900;2022-07-23T23:38:58;21.80;99.90
19037;DHT22;9651;49.138;8.900;2022-07-23T23:43:00;21.70;99.90
19037;DHT22;9651;49.138;8.900;2022-07-23T23:47:02;21.60;99.90
19037;DHT22;9651;49.138;8.900;2022-07-23T23:51:06;21.30;99.90
19037;DHT22;9651;49.138;8.900;2022-07-23T23:55:08;21.20;99.90
19037;DHT22;9651;49.138;8.900;2022-07-23T23:59:10;21.20;99.90
